• Join FlightAware (Why Join?)
  • Login
  • US Flag 
05:36PM EDT


 

Airport Tracker/Info


-or-


 

Live Flight TrackerFlight Track Log ✈ GLA64P ✈ 07-May-2013 ✈ KLAX - KPRC

Flight Track Log - Related Links

Times and Time Zones

All times are in EDT time to prevent confusion due to time zone crossing. See the GLA64P flight status page for this flight to view local times or setup timezone preferences in your user account.

Time Position Orientation Groundspeed Altitude Reporting Facility
EDT Latitude Longitude Course Direction KTS MPH feet Rate Location/Type
03:29PM 33.9144 -118.4456 90° East 157 181 2,200  Level Los Angeles Center
03:30PM 33.8606 -118.4622 194° South 186 214 4,100 1,500 Climbing Los Angeles Center
03:31PM 33.8131 -118.4708 189° South 195 224 5,400 1,260 Climbing Los Angeles Center
03:32PM 33.7789 -118.4203 129° Southeast 197 227 6,800 1,440 Climbing Los Angeles Center
03:33PM 33.7439 -118.3650 127° Southeast 206 237 8,400 1,500 Climbing Los Angeles Center
03:34PM 33.7667 -117.9741 90° East  Level FlightAware Approximate
03:34PM 33.7383 -118.2878 95° East 218 251 10,000  Level Los Angeles Center
03:35PM 33.7503 -118.2164 79° East 221 254 11,400 1,440 Climbing Los Angeles Center
03:36PM 33.7625 -118.1239 81° East 231 266 13,000 1,440 Climbing Los Angeles Center
03:37PM 33.7725 -118.0439 81° East 239 275 14,400 1,320 Climbing Los Angeles Center
03:38PM 33.7686 -117.9614 93° East 245 282 15,800 1,200 Climbing Los Angeles Center
03:39PM 33.7653 -117.8758 93° East 252 290 16,900 360 Climbing Los Angeles Center
03:41PM 33.7558 -117.6803 93° East 300 345 17,000  Climbing Los Angeles Center
03:42PM 33.7461 -117.5558 95° East 311 358 17,000  Level Los Angeles Center
03:43PM 33.7356 -117.4511 97° East 315 362 17,000  Level Los Angeles Center
03:44PM 33.7275 -117.3464 95° East 315 362 17,000  Level Los Angeles Center
03:45PM 33.7192 -117.2422 95° East 315 362 17,000  Level Los Angeles Center
03:46PM 33.7094 -117.1364 96° East 319 367 17,000  Level Los Angeles Center
03:47PM 33.6969 -117.0322 98° East 318 366 17,000  Level Los Angeles Center
03:48PM 33.6861 -116.9261 97° East 320 368 17,000 660 Level Los Angeles Center
03:49PM 33.6814 -116.7992 93° East 316 364 18,400 960 Climbing Los Angeles Center
03:50PM 33.6725 -116.7039 96° East 297 342 19,000 1,020 Climbing Los Angeles Center
03:51PM 33.6614 -116.6006 97° East 310 357 20,500 960 Climbing Los Angeles Center
03:52PM 33.6536 -116.5017 95° East 301 346 21,000 240 Climbing Los Angeles Center
03:53PM 33.6447 -116.3861 95° East 342 394 21,000  Level Los Angeles Center
03:54PM 33.6364 -116.2683 95° East 355 409 21,000  Level Los Angeles Center
03:56PM 33.6317 -116.1478 93° East 361 415 21,000  Level Los Angeles Center
03:57PM 33.6975 -116.0094 60° Northeast 347 399 21,000  Level Los Angeles Center
03:58PM 33.7706 -115.9403 38° Northeast 336 387 21,000  Level Los Angeles Center
03:59PM 33.8425 -115.8647 41° Northeast 341 392 21,000  Level Los Angeles Center
04:00PM 33.9083 -115.7797 47° Northeast 348 400 21,000  Level Los Angeles Center
04:01PM 33.9714 -115.6897 50° Northeast 351 404 21,000  Level Los Angeles Center
04:02PM 34.0361 -115.5989 49° Northeast 355 409 21,000 -60 Level Los Angeles Center
04:03PM 34.1347 -115.4833 44° Northeast 355 409 20,900  Descending Los Angeles Center
04:04PM 34.1950 -115.3925 51° Northeast 347 399 21,000  Climbing Los Angeles Center
04:05PM 34.2550 -115.3008 52° Northeast 348 400 21,000 -60 Level Los Angeles Center
04:06PM 34.3108 -115.2081 54° Northeast 343 395 20,900 -60 Descending Los Angeles Center
04:07PM 34.3611 -115.1083 59° Northeast 345 397 20,900 960 Level Los Angeles Center
04:08PM 34.4186 -115.0111 54° Northeast 329 379 22,900 960 Climbing Los Angeles Center
04:09PM 34.4725 -114.9306 51° Northeast 314 361 23,000  Climbing Los Angeles Center
04:10PM 34.5333 -114.8344 52° Northeast 353 406 23,000  Level Los Angeles Center
04:11PM 34.5972 -114.7417 50° Northeast 359 413 23,000  Level Los Angeles Center
04:12PM 34.6736 -114.6311 50° Northeast 356 410 23,000  Level Los Angeles Center
04:13PM 34.7317 -114.5314 55° Northeast 361 415 23,000  Level Los Angeles Center
04:14PM 34.7803 -114.4564 52° Northeast 356 410 23,100  Climbing Los Angeles Center
04:15PM 34.7878 -114.3200 86° East 340 391 23,000 -60 Descending Los Angeles Center
04:16PM 34.7825 -114.2067 93° East 337 388 23,000  Level Los Angeles Center
04:17PM 34.7753 -114.0936 94° East 335 386 23,000  Level Los Angeles Center
04:18PM 34.7664 -113.9611 95° East 331 381 23,000  Level Los Angeles Center
04:20PM 34.7619 -113.8658 93° East 334 384 23,000  Level Los Angeles Center
04:21PM 34.7606 -113.7333 91° East 330 380 23,000  Level Los Angeles Center
04:22PM 34.7572 -113.6214 92° East 331 381 23,000 -420 Level Albuquerque Center
04:23PM 34.7533 -113.5131 92° East 326 375 22,200 -1,020 Descending Albuquerque Center
04:24PM 34.7447 -113.4083 96° East 318 366 21,000 -1,200 Descending Albuquerque Center
04:25PM 34.7367 -113.3028 95° East 316 364 19,800 -1,440 Descending Albuquerque Center
04:26PM 34.7286 -113.1783 94° East 312 359 18,100 -1,620 Descending Albuquerque Center
04:27PM 34.7189 -113.0786 97° East 304 350 16,500 -2,040 Descending Albuquerque Center
04:28PM 34.7106 -112.9819 96° East 295 339 14,000 -2,220 Descending Albuquerque Center
04:29PM 34.7114 -112.8917 89° East 277 319 12,000 -1,440 Descending Albuquerque Center
04:30PM 34.7167 -112.8108 85° East 255 293 11,100 -1,020 Descending Albuquerque Center
04:31PM 34.7153 -112.7153 91° East 241 277 10,000 -1,080 Descending Albuquerque Center
04:32PM 34.7122 -112.6344 93° East 242 278 8,900 -1,080 Descending Albuquerque Center
04:33PM 34.6992 -112.5575 102° East 237 273 7,800 -840 Descending Albuquerque Center
04:34PM 34.6947 -112.4858 94° East 220 253 7,200 -900 Descending Albuquerque Center
04:35PM 34.6967 -112.4272 88° East 184 212 6,000 -1,020 Descending Albuquerque Center
04:36PM 34.6706 -112.4056 146° Southeast 151 174 5,200 -780 Descending Albuquerque Center